createdAt,value
2019-04-14T00:00:55.402Z,6.20
2019-04-14T00:05:58.307Z,6.14
2019-04-14T00:10:59.741Z,6.14
2019-04-14T00:16:03.149Z,6.27
2019-04-14T00:21:04.659Z,6.15
2019-04-14T00:26:26.958Z,6.06
2019-04-14T00:31:28.604Z,6.08
2019-04-14T00:36:34.763Z,6.17
2019-04-14T00:41:44.882Z,6.01
2019-04-14T00:46:41.554Z,6.23
2019-04-14T00:51:44.160Z,6.04
2019-04-14T00:56:47.450Z,5.96
2019-04-14T01:01:48.961Z,6.15
2019-04-14T01:06:51.402Z,6.03
2019-04-14T01:11:53.847Z,6.06
2019-04-14T01:16:56.296Z,6.16
2019-04-14T01:21:58.886Z,6.04
2019-04-14T01:27:01.705Z,6.00
2019-04-14T01:32:04.563Z,5.94
2019-04-14T01:37:07.192Z,6.03
2019-04-14T01:42:09.513Z,6.00
2019-04-14T01:47:11.646Z,6.16
2019-04-14T01:52:14.552Z,6.17
2019-04-14T01:57:34.940Z,5.91
2019-04-14T02:02:36.237Z,6.01
2019-04-14T02:07:38.682Z,6.01
2019-04-14T02:12:41.130Z,5.96
2019-04-14T02:17:43.854Z,5.95
2019-04-14T02:22:46.319Z,5.63
2019-04-14T02:27:49.348Z,5.44
2019-04-14T02:38:39.162Z,5.49
2019-04-14T02:43:37.692Z,5.50
2019-04-14T02:48:44.292Z,5.40
2019-04-14T02:58:37.811Z,5.44
2019-04-14T03:03:30.523Z,5.37
2019-04-14T03:08:47.691Z,5.16
2019-04-14T03:13:43.456Z,5.05
2019-04-14T03:24:07.026Z,4.73
2019-04-14T03:29:15.022Z,4.68
2019-04-14T03:39:15.606Z,4.68
2019-04-14T03:44:16.773Z,4.54
2019-04-14T03:49:24.567Z,4.68
2019-04-14T03:54:18.735Z,4.80
2019-04-14T03:59:00.394Z,4.87
2019-04-14T04:04:03.251Z,4.87
2019-04-14T04:09:06.275Z,4.95
2019-04-14T04:14:07.745Z,4.98
2019-04-14T04:19:13.618Z,4.87
2019-04-14T04:24:12.905Z,4.89
2019-04-14T04:29:15.786Z,4.87
2019-04-14T04:34:20.495Z,4.88
2019-04-14T04:39:23.595Z,4.80
2019-04-14T04:44:25.081Z,4.91
2019-04-14T04:49:29.295Z,5.14
2019-04-14T04:54:30.156Z,5.07
2019-04-14T04:59:32.447Z,5.10
2019-04-14T05:04:35.117Z,5.10
2019-04-14T05:09:38.510Z,5.04
2019-04-14T05:14:50.087Z,5.14
2019-04-14T05:19:51.913Z,5.16
2019-04-14T05:24:54.952Z,5.32
2019-04-14T05:29:56.281Z,5.31
2019-04-14T05:34:58.775Z,5.28
2019-04-14T05:40:01.617Z,5.19
2019-04-14T05:45:04.478Z,5.29
2019-04-14T05:50:07.238Z,5.31
2019-04-14T05:55:08.837Z,5.40
2019-04-14T06:00:11.048Z,5.30
2019-04-14T06:05:14.538Z,5.45
2019-04-14T06:10:15.966Z,5.62
2019-04-14T06:15:18.424Z,5.79
2019-04-14T06:20:20.894Z,5.77
2019-04-14T06:25:23.358Z,6.01
2019-04-14T06:30:31.794Z,6.25
2019-04-14T06:35:34.276Z,6.88
2019-04-14T06:40:36.743Z,7.95
2019-04-14T06:45:39.202Z,8.70
2019-04-14T06:50:41.683Z,8.61
2019-04-14T06:55:44.158Z,8.15
2019-04-14T07:00:46.634Z,7.98
2019-04-14T07:05:49.103Z,7.63
2019-04-14T07:10:51.571Z,7.81
2019-04-14T07:15:54.040Z,7.79
2019-04-14T07:20:56.510Z,8.78
2019-04-14T07:25:58.992Z,10.41
2019-04-14T07:31:13.753Z,10.89
2019-04-14T07:36:19.354Z,11.91
2019-04-14T07:41:33.929Z,12.72
2019-04-14T07:46:39.266Z,11.71
2019-04-14T07:51:41.791Z,10.56
2019-04-14T07:56:53.077Z,10.83
2019-04-14T08:01:55.582Z,10.28
2019-04-14T08:06:58.052Z,10.11
2019-04-14T08:12:00.527Z,9.93
2019-04-14T08:17:02.987Z,9.72
2019-04-14T08:22:05.459Z,11.24
2019-04-14T08:27:07.928Z,15.20
2019-04-14T08:32:10.406Z,13.58
2019-04-14T08:37:12.930Z,14.02
2019-04-14T08:42:24.378Z,16.59
2019-04-14T08:47:45.206Z,18.92
2019-04-14T08:52:50.627Z,19.36
2019-04-14T08:57:58.690Z,26.09
2019-04-14T09:03:16.444Z,31.15
2019-04-14T09:08:24.887Z,26.15
2019-04-14T09:13:27.379Z,26.90
2019-04-14T09:18:29.864Z,21.32
2019-04-14T09:23:32.330Z,25.97
2019-04-14T09:28:34.808Z,23.16
2019-04-14T09:33:37.291Z,24.65
2019-04-14T09:38:39.830Z,21.93
2019-04-14T09:43:42.311Z,20.40
2019-04-14T09:48:44.803Z,20.42
2019-04-14T09:53:47.275Z,17.64
2019-04-14T09:58:49.737Z,23.93
2019-04-14T10:03:52.202Z,24.43
2019-04-14T10:08:54.691Z,24.75
2019-04-14T10:13:57.154Z,24.32
2019-04-14T10:18:59.632Z,27.89
2019-04-14T10:24:02.099Z,28.85
2019-04-14T10:29:04.590Z,21.63
2019-04-14T10:34:09.764Z,27.78
2019-04-14T10:39:09.544Z,27.75
2019-04-14T10:44:12.058Z,28.72
2019-04-14T10:49:14.580Z,27.82
2019-04-14T10:54:17.074Z,31.29
2019-04-14T10:59:19.557Z,32.50
2019-04-14T11:04:22.036Z,37.41
2019-04-14T11:09:24.546Z,35.92
2019-04-14T11:14:27.042Z,27.24
2019-04-14T11:19:29.526Z,21.32
2019-04-14T11:24:32.008Z,22.87
2019-04-14T11:29:34.473Z,29.83
2019-04-14T11:34:39.717Z,25.12
2019-04-14T11:39:42.194Z,20.20
2019-04-14T11:44:44.679Z,19.68
2019-04-14T11:49:47.156Z,20.48
2019-04-14T11:54:49.662Z,20.97
2019-04-14T11:59:55.048Z,20.25
2019-04-14T12:05:03.466Z,18.26
2019-04-14T12:10:05.941Z,17.49
2019-04-14T12:15:08.447Z,17.23
2019-04-14T12:20:10.942Z,17.97
2019-04-14T12:25:13.468Z,17.72
2019-04-14T12:30:15.959Z,17.30
2019-04-14T12:35:18.447Z,17.16
2019-04-14T12:40:20.956Z,17.20
2019-04-14T12:45:29.198Z,16.92
2019-04-14T12:50:31.778Z,17.86
2019-04-14T12:55:34.257Z,17.76
2019-04-14T13:00:42.526Z,16.69
2019-04-14T13:05:45.020Z,16.25
2019-04-14T13:10:47.503Z,16.83
2019-04-14T13:15:49.978Z,16.29
2019-04-14T13:20:52.441Z,16.68
2019-04-14T13:25:54.923Z,16.27
2019-04-14T13:30:57.447Z,16.37
2019-04-14T13:35:59.930Z,16.09
2019-04-14T13:41:02.430Z,15.62
2019-04-14T13:46:04.915Z,15.70
2019-04-14T13:51:07.402Z,15.77
2019-04-14T13:56:09.870Z,16.33
2019-04-14T14:01:12.350Z,17.10
2019-04-14T14:06:14.830Z,16.55
2019-04-14T14:11:23.244Z,16.45
2019-04-14T14:16:28.623Z,16.15
2019-04-14T14:21:49.315Z,15.76
2019-04-14T14:26:51.842Z,15.53
2019-04-14T14:31:54.319Z,15.31
2019-04-14T14:36:56.779Z,15.12
2019-04-14T14:41:59.348Z,15.02
2019-04-14T14:47:16.648Z,15.24
2019-04-14T14:52:19.136Z,15.29
2019-04-14T14:57:21.616Z,15.62
2019-04-14T15:02:24.103Z,15.85
2019-04-14T15:07:26.593Z,16.42
2019-04-14T15:12:29.081Z,16.69
2019-04-14T15:17:31.549Z,16.32
2019-04-14T15:22:34.021Z,15.66
2019-04-14T15:27:36.501Z,15.27
2019-04-14T15:32:38.996Z,15.11
2019-04-14T15:37:41.450Z,14.88
2019-04-14T15:42:43.928Z,14.80
2019-04-14T15:47:46.411Z,14.62
2019-04-14T15:52:48.904Z,14.60
2019-04-14T15:57:57.388Z,14.40
2019-04-14T16:03:09.085Z,14.43
2019-04-14T16:08:14.349Z,14.36
2019-04-14T16:13:16.860Z,14.41
2019-04-14T16:18:37.499Z,14.06
2019-04-14T16:23:50.024Z,13.66
2019-04-14T16:28:42.469Z,13.46
2019-04-14T16:34:00.234Z,13.37
2019-04-14T16:39:02.720Z,13.32
2019-04-14T16:44:05.207Z,13.42
2019-04-14T16:49:07.719Z,13.60
2019-04-14T16:54:22.516Z,13.43
2019-04-14T16:59:24.998Z,13.44
2019-04-14T17:04:27.501Z,13.42
2019-04-14T17:09:29.982Z,13.36
2019-04-14T17:14:41.727Z,13.08
2019-04-14T17:20:02.207Z,12.91
2019-04-14T17:25:13.800Z,12.82
2019-04-14T17:30:25.293Z,12.64
2019-04-14T17:35:30.828Z,12.47
2019-04-14T17:40:48.497Z,12.44
2019-04-14T17:45:56.972Z,12.25
2019-04-14T17:51:08.187Z,12.11
2019-04-14T17:56:10.687Z,12.12
2019-04-14T18:01:19.390Z,12.00
2019-04-14T18:06:21.941Z,12.02
2019-04-14T18:11:33.746Z,11.83
2019-04-14T18:16:48.521Z,11.55
2019-04-14T18:21:51.022Z,11.45
2019-04-14T18:26:53.504Z,11.36
2019-04-14T18:31:55.974Z,11.28
2019-04-14T18:36:58.474Z,11.11
2019-04-14T18:42:01.013Z,11.12
2019-04-14T18:47:21.846Z,11.03
2019-04-14T18:52:36.623Z,10.89
2019-04-14T18:57:51.374Z,10.93
2019-04-14T19:02:54.055Z,10.71
2019-04-14T19:07:56.792Z,10.45
2019-04-14T19:12:59.434Z,10.43
2019-04-14T19:18:11.174Z,10.27
2019-04-14T19:23:13.752Z,10.16
2019-04-14T19:28:16.249Z,9.94
2019-04-14T19:33:18.738Z,9.78
2019-04-14T19:38:21.217Z,9.72
2019-04-14T19:43:24.360Z,9.56
2019-04-14T19:48:26.225Z,9.45
2019-04-14T19:53:28.702Z,9.28
2019-04-14T19:58:31.177Z,9.24
2019-04-14T20:03:33.682Z,9.19
2019-04-14T20:08:36.140Z,9.10
2019-04-14T20:13:41.515Z,8.95
2019-04-14T20:18:56.315Z,8.92
2019-04-14T20:23:58.791Z,8.82
2019-04-14T20:29:03.798Z,8.75
2019-04-14T20:34:06.297Z,8.50
2019-04-14T20:39:08.764Z,8.57
2019-04-14T20:44:11.248Z,8.46
2019-04-14T20:49:13.723Z,8.41
2019-04-14T20:54:16.214Z,8.37
2019-04-14T20:59:18.676Z,8.34
2019-04-14T21:04:24.216Z,8.37
2019-04-14T21:09:29.670Z,8.22
2019-04-14T21:14:50.319Z,8.01
2019-04-14T21:19:58.905Z,7.72
2019-04-14T21:25:16.558Z,7.61
2019-04-14T21:30:21.832Z,7.61
2019-04-14T21:35:24.365Z,7.57
2019-04-14T21:40:26.834Z,7.42
2019-04-14T21:45:29.306Z,7.43
2019-04-14T21:50:31.758Z,7.24
2019-04-14T21:55:34.245Z,7.05
2019-04-14T22:01:04.040Z,6.92
2019-04-14T22:06:15.524Z,6.79
2019-04-14T22:11:17.936Z,6.59
2019-04-14T22:16:20.408Z,6.62
2019-04-14T22:21:22.868Z,6.49
2019-04-14T22:26:26.509Z,6.41
2019-04-14T22:31:27.812Z,6.17
2019-04-14T22:36:30.299Z,6.24
2019-04-14T22:41:32.823Z,6.00
2019-04-14T22:46:35.376Z,6.22
2019-04-14T22:51:37.896Z,6.16
2019-04-14T22:56:40.376Z,6.10
2019-04-14T23:01:42.843Z,5.73
2019-04-14T23:07:03.656Z,5.77
2019-04-14T23:12:06.184Z,5.76
2019-04-14T23:17:26.957Z,5.65
2019-04-14T23:22:29.434Z,5.54
2019-04-14T23:27:31.892Z,5.72
2019-04-14T23:32:34.459Z,5.83
2019-04-14T23:37:36.929Z,5.92
2019-04-14T23:42:39.413Z,6.06
2019-04-14T23:47:41.881Z,5.85
2019-04-14T23:52:44.345Z,5.72
2019-04-14T23:57:46.915Z,5.80
